sensor_id;sensor_type;location;lat;lon;timestamp;P1;durP1;ratioP1;P2;durP2;ratioP2
25982;SDS011;13773;48.868;10.730;2022-09-30T00:01:16;26.83;;;17.50;;
25982;SDS011;13773;48.868;10.730;2022-09-30T00:03:42;27.07;;;17.37;;
25982;SDS011;13773;48.868;10.730;2022-09-30T00:06:08;27.80;;;18.23;;
25982;SDS011;13773;48.868;10.730;2022-09-30T00:08:38;26.00;;;18.00;;
25982;SDS011;13773;48.868;10.730;2022-09-30T00:11:05;34.97;;;19.40;;
25982;SDS011;13773;48.868;10.730;2022-09-30T00:13:37;27.00;;;17.40;;
25982;SDS011;13773;48.868;10.730;2022-09-30T00:16:04;31.97;;;18.90;;
25982;SDS011;13773;48.868;10.730;2022-09-30T00:18:30;29.07;;;17.43;;
25982;SDS011;13773;48.868;10.730;2022-09-30T00:20:57;33.40;;;19.30;;
25982;SDS011;13773;48.868;10.730;2022-09-30T00:23:23;33.80;;;19.30;;
25982;SDS011;13773;48.868;10.730;2022-09-30T00:25:49;33.17;;;18.90;;
25982;SDS011;13773;48.868;10.730;2022-09-30T00:28:15;35.77;;;19.70;;
25982;SDS011;13773;48.868;10.730;2022-09-30T00:30:41;35.60;;;20.60;;
25982;SDS011;13773;48.868;10.730;2022-09-30T00:33:07;39.07;;;21.63;;
25982;SDS011;13773;48.868;10.730;2022-09-30T00:35:35;37.33;;;22.63;;
25982;SDS011;13773;48.868;10.730;2022-09-30T00:38:02;34.13;;;20.90;;
25982;SDS011;13773;48.868;10.730;2022-09-30T00:40:27;30.63;;;19.17;;
25982;SDS011;13773;48.868;10.730;2022-09-30T00:42:54;32.60;;;18.87;;
25982;SDS011;13773;48.868;10.730;2022-09-30T00:45:20;30.00;;;18.97;;
25982;SDS011;13773;48.868;10.730;2022-09-30T00:47:56;35.00;;;19.97;;
25982;SDS011;13773;48.868;10.730;2022-09-30T00:55:52;37.73;;;21.50;;
25982;SDS011;13773;48.868;10.730;2022-09-30T00:58:33;36.97;;;20.73;;
25982;SDS011;13773;48.868;10.730;2022-09-30T01:01:03;40.70;;;21.10;;
25982;SDS011;13773;48.868;10.730;2022-09-30T01:03:30;44.20;;;22.87;;
25982;SDS011;13773;48.868;10.730;2022-09-30T01:05:57;44.33;;;23.67;;
25982;SDS011;13773;48.868;10.730;2022-09-30T01:08:23;45.87;;;24.23;;
25982;SDS011;13773;48.868;10.730;2022-09-30T01:10:50;51.77;;;24.80;;
25982;SDS011;13773;48.868;10.730;2022-09-30T01:13:16;55.20;;;25.73;;
25982;SDS011;13773;48.868;10.730;2022-09-30T01:15:53;51.33;;;23.43;;
25982;SDS011;13773;48.868;10.730;2022-09-30T01:18:45;42.90;;;22.63;;
25982;SDS011;13773;48.868;10.730;2022-09-30T01:37:43;39.53;;;20.53;;
25982;SDS011;13773;48.868;10.730;2022-09-30T01:45:41;38.80;;;19.83;;
25982;SDS011;13773;48.868;10.730;2022-09-30T01:50:43;48.47;;;23.20;;
25982;SDS011;13773;48.868;10.730;2022-09-30T01:58:56;42.80;;;20.50;;
25982;SDS011;13773;48.868;10.730;2022-09-30T02:01:39;49.13;;;22.87;;
25982;SDS011;13773;48.868;10.730;2022-09-30T02:04:24;55.40;;;25.23;;
25982;SDS011;13773;48.868;10.730;2022-09-30T02:06:58;60.40;;;25.83;;
25982;SDS011;13773;48.868;10.730;2022-09-30T02:09:34;56.00;;;25.40;;
25982;SDS011;13773;48.868;10.730;2022-09-30T02:12:18;69.50;;;28.23;;
25982;SDS011;13773;48.868;10.730;2022-09-30T02:14:48;57.10;;;25.80;;
25982;SDS011;13773;48.868;10.730;2022-09-30T02:17:34;51.70;;;25.27;;
25982;SDS011;13773;48.868;10.730;2022-09-30T02:20:17;57.63;;;26.53;;
25982;SDS011;13773;48.868;10.730;2022-09-30T02:22:50;53.30;;;25.73;;
25982;SDS011;13773;48.868;10.730;2022-09-30T02:25:22;52.00;;;22.93;;
25982;SDS011;13773;48.868;10.730;2022-09-30T02:28:02;45.13;;;20.83;;
25982;SDS011;13773;48.868;10.730;2022-09-30T02:30:33;39.13;;;19.60;;
25982;SDS011;13773;48.868;10.730;2022-09-30T02:33:02;40.73;;;18.50;;
25982;SDS011;13773;48.868;10.730;2022-09-30T02:35:44;38.57;;;19.23;;
25982;SDS011;13773;48.868;10.730;2022-09-30T02:38:18;46.07;;;20.77;;
25982;SDS011;13773;48.868;10.730;2022-09-30T02:40:52;49.23;;;20.93;;
25982;SDS011;13773;48.868;10.730;2022-09-30T02:43:30;49.33;;;18.60;;
25982;SDS011;13773;48.868;10.730;2022-09-30T02:46:42;48.63;;;21.10;;
25982;SDS011;13773;48.868;10.730;2022-09-30T02:49:07;66.60;;;23.63;;
25982;SDS011;13773;48.868;10.730;2022-09-30T02:52:04;52.47;;;23.53;;
25982;SDS011;13773;48.868;10.730;2022-09-30T02:54:37;50.47;;;22.67;;
25982;SDS011;13773;48.868;10.730;2022-09-30T02:57:25;45.97;;;20.93;;
25982;SDS011;13773;48.868;10.730;2022-09-30T02:59:58;40.60;;;20.10;;
25982;SDS011;13773;48.868;10.730;2022-09-30T03:02:24;41.63;;;19.50;;
25982;SDS011;13773;48.868;10.730;2022-09-30T03:04:50;36.00;;;17.20;;
25982;SDS011;13773;48.868;10.730;2022-09-30T03:07:15;43.13;;;19.60;;
25982;SDS011;13773;48.868;10.730;2022-09-30T03:09:42;40.03;;;18.77;;
25982;SDS011;13773;48.868;10.730;2022-09-30T03:20:38;66.67;;;22.50;;
25982;SDS011;13773;48.868;10.730;2022-09-30T03:31:42;62.23;;;22.90;;
25982;SDS011;13773;48.868;10.730;2022-09-30T03:42:16;131.13;;;30.33;;
25982;SDS011;13773;48.868;10.730;2022-09-30T03:47:27;61.23;;;25.77;;
25982;SDS011;13773;48.868;10.730;2022-09-30T03:49:57;61.10;;;24.73;;
25982;SDS011;13773;48.868;10.730;2022-09-30T03:52:29;55.07;;;21.27;;
25982;SDS011;13773;48.868;10.730;2022-09-30T03:54:58;46.67;;;20.67;;
25982;SDS011;13773;48.868;10.730;2022-09-30T03:57:26;51.93;;;20.23;;
25982;SDS011;13773;48.868;10.730;2022-09-30T03:59:57;48.80;;;20.27;;
25982;SDS011;13773;48.868;10.730;2022-09-30T04:02:23;49.20;;;20.10;;
25982;SDS011;13773;48.868;10.730;2022-09-30T04:04:50;53.30;;;21.03;;
25982;SDS011;13773;48.868;10.730;2022-09-30T04:07:15;52.03;;;23.10;;
25982;SDS011;13773;48.868;10.730;2022-09-30T04:09:41;94.20;;;25.03;;
25982;SDS011;13773;48.868;10.730;2022-09-30T04:12:07;144.20;;;27.07;;
25982;SDS011;13773;48.868;10.730;2022-09-30T04:14:33;184.37;;;30.97;;
25982;SDS011;13773;48.868;10.730;2022-09-30T04:16:59;240.07;;;32.00;;
25982;SDS011;13773;48.868;10.730;2022-09-30T04:19:26;145.13;;;29.27;;
25982;SDS011;13773;48.868;10.730;2022-09-30T04:21:52;75.80;;;26.00;;
25982;SDS011;13773;48.868;10.730;2022-09-30T04:24:19;130.70;;;28.50;;
25982;SDS011;13773;48.868;10.730;2022-09-30T04:26:45;106.30;;;30.13;;
25982;SDS011;13773;48.868;10.730;2022-09-30T04:29:11;60.23;;;24.80;;
25982;SDS011;13773;48.868;10.730;2022-09-30T04:31:36;121.33;;;30.57;;
25982;SDS011;13773;48.868;10.730;2022-09-30T04:34:02;282.43;;;36.00;;
25982;SDS011;13773;48.868;10.730;2022-09-30T04:36:28;162.30;;;30.00;;
25982;SDS011;13773;48.868;10.730;2022-09-30T04:38:54;179.37;;;32.20;;
25982;SDS011;13773;48.868;10.730;2022-09-30T04:41:19;230.50;;;34.60;;
25982;SDS011;13773;48.868;10.730;2022-09-30T04:43:46;204.30;;;33.17;;
25982;SDS011;13773;48.868;10.730;2022-09-30T04:46:16;96.97;;;28.33;;
25982;SDS011;13773;48.868;10.730;2022-09-30T04:48:44;100.50;;;28.50;;
25982;SDS011;13773;48.868;10.730;2022-09-30T04:51:13;104.13;;;29.27;;
25982;SDS011;13773;48.868;10.730;2022-09-30T04:53:41;159.13;;;33.50;;
25982;SDS011;13773;48.868;10.730;2022-09-30T04:56:07;62.60;;;26.13;;
25982;SDS011;13773;48.868;10.730;2022-09-30T04:58:34;201.83;;;35.03;;
25982;SDS011;13773;48.868;10.730;2022-09-30T05:01:03;66.77;;;25.10;;
25982;SDS011;13773;48.868;10.730;2022-09-30T05:03:34;83.87;;;27.50;;
25982;SDS011;13773;48.868;10.730;2022-09-30T05:06:00;121.50;;;29.30;;
25982;SDS011;13773;48.868;10.730;2022-09-30T05:08:26;53.97;;;24.03;;
25982;SDS011;13773;48.868;10.730;2022-09-30T05:10:55;142.83;;;29.10;;
25982;SDS011;13773;48.868;10.730;2022-09-30T05:13:24;143.37;;;32.00;;
25982;SDS011;13773;48.868;10.730;2022-09-30T05:15:51;114.47;;;29.13;;
25982;SDS011;13773;48.868;10.730;2022-09-30T05:18:19;127.97;;;28.63;;
25982;SDS011;13773;48.868;10.730;2022-09-30T05:20:49;102.90;;;29.80;;
25982;SDS011;13773;48.868;10.730;2022-09-30T05:23:15;110.03;;;30.13;;
25982;SDS011;13773;48.868;10.730;2022-09-30T05:25:41;85.67;;;28.27;;
25982;SDS011;13773;48.868;10.730;2022-09-30T05:28:07;56.33;;;26.47;;
25982;SDS011;13773;48.868;10.730;2022-09-30T05:30:32;48.47;;;24.47;;
25982;SDS011;13773;48.868;10.730;2022-09-30T05:32:58;42.37;;;23.57;;
25982;SDS011;13773;48.868;10.730;2022-09-30T05:35:24;42.03;;;23.77;;
25982;SDS011;13773;48.868;10.730;2022-09-30T05:37:49;41.90;;;24.63;;
25982;SDS011;13773;48.868;10.730;2022-09-30T05:40:15;45.27;;;23.50;;
25982;SDS011;13773;48.868;10.730;2022-09-30T05:42:41;40.57;;;22.50;;
25982;SDS011;13773;48.868;10.730;2022-09-30T05:45:09;39.63;;;22.10;;
25982;SDS011;13773;48.868;10.730;2022-09-30T05:47:35;34.70;;;19.63;;
25982;SDS011;13773;48.868;10.730;2022-09-30T05:50:00;36.37;;;19.57;;
25982;SDS011;13773;48.868;10.730;2022-09-30T05:52:26;37.33;;;20.53;;
25982;SDS011;13773;48.868;10.730;2022-09-30T05:54:52;38.90;;;19.70;;
25982;SDS011;13773;48.868;10.730;2022-09-30T05:57:19;33.40;;;18.80;;
25982;SDS011;13773;48.868;10.730;2022-09-30T05:59:45;45.57;;;22.77;;
25982;SDS011;13773;48.868;10.730;2022-09-30T06:02:11;57.33;;;29.70;;
25982;SDS011;13773;48.868;10.730;2022-09-30T06:04:41;50.57;;;29.17;;
25982;SDS011;13773;48.868;10.730;2022-09-30T06:07:06;55.50;;;27.03;;
25982;SDS011;13773;48.868;10.730;2022-09-30T06:09:32;51.27;;;25.67;;
25982;SDS011;13773;48.868;10.730;2022-09-30T06:11:58;53.63;;;26.53;;
25982;SDS011;13773;48.868;10.730;2022-09-30T06:14:24;45.93;;;24.80;;
25982;SDS011;13773;48.868;10.730;2022-09-30T06:16:50;56.90;;;27.50;;
25982;SDS011;13773;48.868;10.730;2022-09-30T06:19:16;43.03;;;24.53;;
25982;SDS011;13773;48.868;10.730;2022-09-30T06:21:41;51.77;;;27.20;;
25982;SDS011;13773;48.868;10.730;2022-09-30T06:24:07;50.67;;;24.93;;
25982;SDS011;13773;48.868;10.730;2022-09-30T06:26:37;56.80;;;26.53;;
25982;SDS011;13773;48.868;10.730;2022-09-30T06:29:03;60.97;;;28.60;;
25982;SDS011;13773;48.868;10.730;2022-09-30T06:31:29;56.37;;;26.50;;
25982;SDS011;13773;48.868;10.730;2022-09-30T06:33:55;55.43;;;26.07;;
25982;SDS011;13773;48.868;10.730;2022-09-30T06:36:21;52.27;;;25.13;;
25982;SDS011;13773;48.868;10.730;2022-09-30T06:38:52;49.93;;;26.27;;
25982;SDS011;13773;48.868;10.730;2022-09-30T06:41:18;53.60;;;26.40;;
25982;SDS011;13773;48.868;10.730;2022-09-30T06:43:44;57.13;;;25.77;;
25982;SDS011;13773;48.868;10.730;2022-09-30T06:46:10;63.30;;;27.73;;
25982;SDS011;13773;48.868;10.730;2022-09-30T06:48:37;77.33;;;28.53;;
25982;SDS011;13773;48.868;10.730;2022-09-30T06:51:04;63.37;;;27.70;;
25982;SDS011;13773;48.868;10.730;2022-09-30T06:53:34;93.23;;;29.53;;
25982;SDS011;13773;48.868;10.730;2022-09-30T06:56:01;88.03;;;26.47;;
25982;SDS011;13773;48.868;10.730;2022-09-30T06:58:27;78.57;;;26.30;;
25982;SDS011;13773;48.868;10.730;2022-09-30T07:00:56;58.27;;;26.30;;
25982;SDS011;13773;48.868;10.730;2022-09-30T07:03:26;69.83;;;26.30;;
25982;SDS011;13773;48.868;10.730;2022-09-30T07:05:56;53.17;;;20.17;;
25982;SDS011;13773;48.868;10.730;2022-09-30T07:08:24;43.70;;;15.83;;
25982;SDS011;13773;48.868;10.730;2022-09-30T07:10:53;57.37;;;16.03;;
25982;SDS011;13773;48.868;10.730;2022-09-30T07:13:18;45.07;;;17.00;;
25982;SDS011;13773;48.868;10.730;2022-09-30T07:15:44;36.57;;;16.57;;
25982;SDS011;13773;48.868;10.730;2022-09-30T07:18:10;32.93;;;14.03;;
25982;SDS011;13773;48.868;10.730;2022-09-30T07:20:35;27.43;;;12.83;;
25982;SDS011;13773;48.868;10.730;2022-09-30T07:23:01;25.67;;;12.83;;
25982;SDS011;13773;48.868;10.730;2022-09-30T07:25:27;49.07;;;16.00;;
25982;SDS011;13773;48.868;10.730;2022-09-30T07:27:52;46.87;;;16.53;;
25982;SDS011;13773;48.868;10.730;2022-09-30T07:30:20;65.93;;;17.50;;
25982;SDS011;13773;48.868;10.730;2022-09-30T07:32:46;38.90;;;15.60;;
25982;SDS011;13773;48.868;10.730;2022-09-30T07:35:12;43.27;;;15.63;;
25982;SDS011;13773;48.868;10.730;2022-09-30T07:37:38;51.37;;;14.40;;
25982;SDS011;13773;48.868;10.730;2022-09-30T07:40:04;60.13;;;15.07;;
25982;SDS011;13773;48.868;10.730;2022-09-30T07:42:32;101.10;;;15.47;;
25982;SDS011;13773;48.868;10.730;2022-09-30T07:45:00;73.53;;;15.67;;
25982;SDS011;13773;48.868;10.730;2022-09-30T07:47:26;39.80;;;14.20;;
25982;SDS011;13773;48.868;10.730;2022-09-30T07:49:51;45.13;;;14.57;;
25982;SDS011;13773;48.868;10.730;2022-09-30T07:52:17;39.23;;;15.20;;
25982;SDS011;13773;48.868;10.730;2022-09-30T07:54:43;27.60;;;14.10;;
25982;SDS011;13773;48.868;10.730;2022-09-30T07:57:09;49.33;;;14.63;;
25982;SDS011;13773;48.868;10.730;2022-09-30T07:59:36;29.03;;;14.03;;
25982;SDS011;13773;48.868;10.730;2022-09-30T08:02:05;61.37;;;14.20;;
25982;SDS011;13773;48.868;10.730;2022-09-30T08:04:32;38.63;;;14.47;;
25982;SDS011;13773;48.868;10.730;2022-09-30T08:06:59;23.57;;;13.93;;
25982;SDS011;13773;48.868;10.730;2022-09-30T08:09:27;28.10;;;13.80;;
25982;SDS011;13773;48.868;10.730;2022-09-30T08:11:54;41.30;;;13.40;;
25982;SDS011;13773;48.868;10.730;2022-09-30T08:14:20;30.73;;;13.50;;
25982;SDS011;13773;48.868;10.730;2022-09-30T08:16:48;22.77;;;10.77;;
25982;SDS011;13773;48.868;10.730;2022-09-30T08:19:18;24.00;;;10.63;;
25982;SDS011;13773;48.868;10.730;2022-09-30T08:21:46;29.73;;;10.53;;
25982;SDS011;13773;48.868;10.730;2022-09-30T08:24:12;15.20;;;10.80;;
25982;SDS011;13773;48.868;10.730;2022-09-30T08:26:38;24.43;;;11.20;;
25982;SDS011;13773;48.868;10.730;2022-09-30T08:29:07;26.37;;;10.47;;
25982;SDS011;13773;48.868;10.730;2022-09-30T08:31:35;39.10;;;11.33;;
25982;SDS011;13773;48.868;10.730;2022-09-30T08:34:01;23.23;;;12.13;;
25982;SDS011;13773;48.868;10.730;2022-09-30T08:36:28;32.67;;;11.80;;
25982;SDS011;13773;48.868;10.730;2022-09-30T08:38:54;26.27;;;11.53;;
25982;SDS011;13773;48.868;10.730;2022-09-30T08:51:55;24.13;;;14.13;;
25982;SDS011;13773;48.868;10.730;2022-09-30T08:54:23;25.40;;;14.97;;
25982;SDS011;13773;48.868;10.730;2022-09-30T08:56:53;19.77;;;13.37;;
25982;SDS011;13773;48.868;10.730;2022-09-30T09:02:31;19.43;;;14.17;;
25982;SDS011;13773;48.868;10.730;2022-09-30T09:05:03;39.27;;;15.27;;
25982;SDS011;13773;48.868;10.730;2022-09-30T09:21:01;21.30;;;13.80;;
25982;SDS011;13773;48.868;10.730;2022-09-30T09:23:36;18.67;;;13.97;;
25982;SDS011;13773;48.868;10.730;2022-09-30T09:26:03;19.83;;;14.53;;
25982;SDS011;13773;48.868;10.730;2022-09-30T09:28:37;19.27;;;14.83;;
25982;SDS011;13773;48.868;10.730;2022-09-30T09:31:22;42.73;;;29.60;;
25982;SDS011;13773;48.868;10.730;2022-09-30T09:33:49;33.27;;;23.30;;
25982;SDS011;13773;48.868;10.730;2022-09-30T09:39:15;23.20;;;15.30;;
25982;SDS011;13773;48.868;10.730;2022-09-30T09:47:50;25.60;;;16.93;;
25982;SDS011;13773;48.868;10.730;2022-09-30T09:50:18;22.40;;;16.23;;
25982;SDS011;13773;48.868;10.730;2022-09-30T09:55:53;21.03;;;15.50;;
25982;SDS011;13773;48.868;10.730;2022-09-30T09:58:23;19.67;;;15.57;;
25982;SDS011;13773;48.868;10.730;2022-09-30T10:00:49;16.27;;;13.63;;
25982;SDS011;13773;48.868;10.730;2022-09-30T10:03:17;18.33;;;13.73;;
25982;SDS011;13773;48.868;10.730;2022-09-30T10:05:45;19.10;;;15.43;;
25982;SDS011;13773;48.868;10.730;2022-09-30T10:08:33;16.23;;;14.53;;
25982;SDS011;13773;48.868;10.730;2022-09-30T10:11:01;17.00;;;15.13;;
25982;SDS011;13773;48.868;10.730;2022-09-30T10:13:47;17.00;;;14.50;;
25982;SDS011;13773;48.868;10.730;2022-09-30T10:16:31;15.90;;;14.20;;
25982;SDS011;13773;48.868;10.730;2022-09-30T10:18:57;15.83;;;14.13;;
25982;SDS011;13773;48.868;10.730;2022-09-30T10:21:25;17.03;;;14.80;;
25982;SDS011;13773;48.868;10.730;2022-09-30T10:23:52;16.77;;;14.00;;
25982;SDS011;13773;48.868;10.730;2022-09-30T10:26:19;16.67;;;14.67;;
25982;SDS011;13773;48.868;10.730;2022-09-30T10:28:48;17.30;;;14.93;;
25982;SDS011;13773;48.868;10.730;2022-09-30T10:31:37;15.47;;;13.87;;
25982;SDS011;13773;48.868;10.730;2022-09-30T10:34:27;15.27;;;13.50;;
25982;SDS011;13773;48.868;10.730;2022-09-30T10:36:55;15.50;;;13.80;;
25982;SDS011;13773;48.868;10.730;2022-09-30T10:39:58;17.53;;;13.63;;
25982;SDS011;13773;48.868;10.730;2022-09-30T10:42:22;16.03;;;13.43;;
25982;SDS011;13773;48.868;10.730;2022-09-30T10:44:52;15.83;;;14.23;;
25982;SDS011;13773;48.868;10.730;2022-09-30T10:47:21;14.37;;;12.87;;
25982;SDS011;13773;48.868;10.730;2022-09-30T10:49:56;14.83;;;13.30;;
25982;SDS011;13773;48.868;10.730;2022-09-30T10:52:29;14.33;;;12.83;;
25982;SDS011;13773;48.868;10.730;2022-09-30T10:54:59;15.33;;;13.77;;
25982;SDS011;13773;48.868;10.730;2022-09-30T10:57:31;15.53;;;13.30;;
25982;SDS011;13773;48.868;10.730;2022-09-30T11:05:32;14.73;;;13.23;;
25982;SDS011;13773;48.868;10.730;2022-09-30T11:08:02;15.27;;;13.67;;
25982;SDS011;13773;48.868;10.730;2022-09-30T11:11:01;14.17;;;12.20;;
25982;SDS011;13773;48.868;10.730;2022-09-30T11:13:36;15.07;;;13.47;;
25982;SDS011;13773;48.868;10.730;2022-09-30T11:24:16;16.17;;;14.47;;
25982;SDS011;13773;48.868;10.730;2022-09-30T11:27:11;15.90;;;13.53;;
25982;SDS011;13773;48.868;10.730;2022-09-30T11:32:23;12.27;;;11.03;;
25982;SDS011;13773;48.868;10.730;2022-09-30T11:43:18;16.20;;;14.50;;
25982;SDS011;13773;48.868;10.730;2022-09-30T11:58:07;15.20;;;13.10;;
25982;SDS011;13773;48.868;10.730;2022-09-30T12:00:17;12.67;;;11.37;;
25982;SDS011;13773;48.868;10.730;2022-09-30T12:03:26;11.17;;;10.10;;
25982;SDS011;13773;48.868;10.730;2022-09-30T12:05:47;12.20;;;11.03;;
25982;SDS011;13773;48.868;10.730;2022-09-30T12:08:18;11.40;;;10.40;;
25982;SDS011;13773;48.868;10.730;2022-09-30T12:13:21;11.57;;;10.37;;
25982;SDS011;13773;48.868;10.730;2022-09-30T12:15:50;10.97;;;9.87;;
25982;SDS011;13773;48.868;10.730;2022-09-30T12:21:17;12.77;;;11.57;;
25982;SDS011;13773;48.868;10.730;2022-09-30T12:23:49;14.03;;;12.53;;
25982;SDS011;13773;48.868;10.730;2022-09-30T12:26:23;13.90;;;12.60;;
25982;SDS011;13773;48.868;10.730;2022-09-30T12:40:00;11.37;;;10.20;;
25982;SDS011;13773;48.868;10.730;2022-09-30T12:45:58;9.77;;;8.67;;
25982;SDS011;13773;48.868;10.730;2022-09-30T12:48:50;11.20;;;10.10;;
25982;SDS011;13773;48.868;10.730;2022-09-30T12:51:31;11.17;;;10.03;;
25982;SDS011;13773;48.868;10.730;2022-09-30T12:54:09;10.50;;;9.50;;
25982;SDS011;13773;48.868;10.730;2022-09-30T12:56:44;10.77;;;9.67;;
25982;SDS011;13773;48.868;10.730;2022-09-30T12:59:12;11.13;;;10.03;;
25982;SDS011;13773;48.868;10.730;2022-09-30T13:01:39;12.03;;;10.77;;
25982;SDS011;13773;48.868;10.730;2022-09-30T13:12:25;11.97;;;10.77;;
25982;SDS011;13773;48.868;10.730;2022-09-30T13:14:39;10.70;;;9.47;;
25982;SDS011;13773;48.868;10.730;2022-09-30T13:19:36;12.13;;;8.07;;
25982;SDS011;13773;48.868;10.730;2022-09-30T13:32:43;8.23;;;7.43;;
25982;SDS011;13773;48.868;10.730;2022-09-30T13:43:39;9.80;;;7.93;;
25982;SDS011;13773;48.868;10.730;2022-09-30T13:46:26;8.80;;;7.90;;
25982;SDS011;13773;48.868;10.730;2022-09-30T13:49:21;8.73;;;7.83;;
25982;SDS011;13773;48.868;10.730;2022-09-30T13:52:01;9.40;;;8.20;;
25982;SDS011;13773;48.868;10.730;2022-09-30T13:54:32;9.87;;;8.13;;
25982;SDS011;13773;48.868;10.730;2022-09-30T13:57:02;9.23;;;8.20;;
25982;SDS011;13773;48.868;10.730;2022-09-30T14:07:37;10.57;;;8.50;;
25982;SDS011;13773;48.868;10.730;2022-09-30T14:18:27;8.60;;;7.77;;
25982;SDS011;13773;48.868;10.730;2022-09-30T14:21:23;9.97;;;8.10;;
25982;SDS011;13773;48.868;10.730;2022-09-30T14:24:10;8.93;;;7.37;;
25982;SDS011;13773;48.868;10.730;2022-09-30T14:32:10;9.67;;;7.93;;
25982;SDS011;13773;48.868;10.730;2022-09-30T14:34:37;8.17;;;7.13;;
25982;SDS011;13773;48.868;10.730;2022-09-30T14:37:04;8.40;;;7.13;;
25982;SDS011;13773;48.868;10.730;2022-09-30T14:39:35;8.97;;;6.60;;
25982;SDS011;13773;48.868;10.730;2022-09-30T14:42:01;10.13;;;7.23;;
25982;SDS011;13773;48.868;10.730;2022-09-30T14:44:28;7.73;;;6.93;;
25982;SDS011;13773;48.868;10.730;2022-09-30T14:46:58;8.20;;;7.07;;
25982;SDS011;13773;48.868;10.730;2022-09-30T14:49:27;8.20;;;6.70;;
25982;SDS011;13773;48.868;10.730;2022-09-30T14:52:00;7.90;;;6.40;;
25982;SDS011;13773;48.868;10.730;2022-09-30T14:54:30;7.63;;;6.27;;
25982;SDS011;13773;48.868;10.730;2022-09-30T14:56:58;7.47;;;5.93;;
25982;SDS011;13773;48.868;10.730;2022-09-30T14:59:30;7.07;;;6.37;;
25982;SDS011;13773;48.868;10.730;2022-09-30T15:02:02;8.20;;;7.27;;
25982;SDS011;13773;48.868;10.730;2022-09-30T15:04:37;9.30;;;7.00;;
25982;SDS011;13773;48.868;10.730;2022-09-30T15:07:08;8.53;;;7.40;;
25982;SDS011;13773;48.868;10.730;2022-09-30T15:09:40;7.40;;;6.60;;
25982;SDS011;13773;48.868;10.730;2022-09-30T15:12:21;6.17;;;5.57;;
25982;SDS011;13773;48.868;10.730;2022-09-30T15:14:48;6.83;;;6.17;;
25982;SDS011;13773;48.868;10.730;2022-09-30T15:19:51;10.23;;;7.37;;
25982;SDS011;13773;48.868;10.730;2022-09-30T15:22:19;8.47;;;6.13;;
25982;SDS011;13773;48.868;10.730;2022-09-30T15:24:47;8.83;;;6.30;;
25982;SDS011;13773;48.868;10.730;2022-09-30T15:27:20;6.47;;;5.77;;
25982;SDS011;13773;48.868;10.730;2022-09-30T15:29:56;7.00;;;5.77;;
25982;SDS011;13773;48.868;10.730;2022-09-30T15:32:27;5.60;;;5.00;;
25982;SDS011;13773;48.868;10.730;2022-09-30T15:34:56;8.67;;;7.63;;
25982;SDS011;13773;48.868;10.730;2022-09-30T15:37:29;7.47;;;6.03;;
25982;SDS011;13773;48.868;10.730;2022-09-30T15:39:57;10.37;;;7.27;;
25982;SDS011;13773;48.868;10.730;2022-09-30T15:42:44;7.60;;;6.80;;
25982;SDS011;13773;48.868;10.730;2022-09-30T15:45:30;7.33;;;6.00;;
25982;SDS011;13773;48.868;10.730;2022-09-30T15:48:03;7.57;;;6.13;;
25982;SDS011;13773;48.868;10.730;2022-09-30T15:53:18;6.37;;;5.70;;
25982;SDS011;13773;48.868;10.730;2022-09-30T15:55:46;6.23;;;5.43;;
25982;SDS011;13773;48.868;10.730;2022-09-30T15:58:30;7.07;;;6.00;;
25982;SDS011;13773;48.868;10.730;2022-09-30T16:01:21;6.83;;;5.87;;
25982;SDS011;13773;48.868;10.730;2022-09-30T16:06:26;6.87;;;5.60;;
25982;SDS011;13773;48.868;10.730;2022-09-30T16:09:05;8.07;;;5.83;;
25982;SDS011;13773;48.868;10.730;2022-09-30T16:11:42;7.23;;;5.50;;
25982;SDS011;13773;48.868;10.730;2022-09-30T16:14:18;7.47;;;5.93;;
25982;SDS011;13773;48.868;10.730;2022-09-30T16:16:47;7.57;;;5.80;;
25982;SDS011;13773;48.868;10.730;2022-09-30T16:19:16;5.77;;;5.23;;
25982;SDS011;13773;48.868;10.730;2022-09-30T16:21:49;6.67;;;5.70;;
25982;SDS011;13773;48.868;10.730;2022-09-30T16:26:52;6.50;;;5.90;;
25982;SDS011;13773;48.868;10.730;2022-09-30T16:29:23;8.27;;;7.07;;
25982;SDS011;13773;48.868;10.730;2022-09-30T16:31:50;5.97;;;5.37;;
25982;SDS011;13773;48.868;10.730;2022-09-30T16:34:26;6.70;;;5.10;;
25982;SDS011;13773;48.868;10.730;2022-09-30T16:36:53;7.10;;;6.00;;
25982;SDS011;13773;48.868;10.730;2022-09-30T16:39:27;7.13;;;6.10;;
25982;SDS011;13773;48.868;10.730;2022-09-30T16:41:53;6.40;;;5.80;;
25982;SDS011;13773;48.868;10.730;2022-09-30T16:44:19;7.23;;;5.83;;
25982;SDS011;13773;48.868;10.730;2022-09-30T16:46:48;8.80;;;6.03;;
25982;SDS011;13773;48.868;10.730;2022-09-30T16:49:17;7.47;;;6.60;;
25982;SDS011;13773;48.868;10.730;2022-09-30T16:51:43;7.97;;;6.73;;
25982;SDS011;13773;48.868;10.730;2022-09-30T16:54:09;8.47;;;6.87;;
25982;SDS011;13773;48.868;10.730;2022-09-30T16:56:36;8.73;;;7.80;;
25982;SDS011;13773;48.868;10.730;2022-09-30T16:59:02;9.60;;;7.70;;
25982;SDS011;13773;48.868;10.730;2022-09-30T17:01:28;9.03;;;7.97;;
25982;SDS011;13773;48.868;10.730;2022-09-30T17:03:55;11.43;;;8.43;;
25982;SDS011;13773;48.868;10.730;2022-09-30T17:06:26;11.00;;;8.77;;
25982;SDS011;13773;48.868;10.730;2022-09-30T17:08:53;12.53;;;9.23;;
25982;SDS011;13773;48.868;10.730;2022-09-30T17:11:23;11.57;;;9.27;;
25982;SDS011;13773;48.868;10.730;2022-09-30T17:13:55;14.90;;;10.97;;
25982;SDS011;13773;48.868;10.730;2022-09-30T17:16:21;13.37;;;9.40;;
25982;SDS011;13773;48.868;10.730;2022-09-30T17:18:47;14.60;;;10.20;;
25982;SDS011;13773;48.868;10.730;2022-09-30T17:21:20;15.03;;;10.67;;
25982;SDS011;13773;48.868;10.730;2022-09-30T17:23:49;13.40;;;11.13;;
25982;SDS011;13773;48.868;10.730;2022-09-30T17:26:15;18.87;;;11.80;;
25982;SDS011;13773;48.868;10.730;2022-09-30T17:28:41;19.83;;;11.67;;
25982;SDS011;13773;48.868;10.730;2022-09-30T17:31:08;15.73;;;11.93;;
25982;SDS011;13773;48.868;10.730;2022-09-30T17:33:35;17.97;;;13.20;;
25982;SDS011;13773;48.868;10.730;2022-09-30T17:36:03;20.37;;;14.03;;
25982;SDS011;13773;48.868;10.730;2022-09-30T17:38:30;20.10;;;13.73;;
25982;SDS011;13773;48.868;10.730;2022-09-30T17:40:57;18.40;;;14.03;;
25982;SDS011;13773;48.868;10.730;2022-09-30T17:43:41;17.37;;;13.60;;
25982;SDS011;13773;48.868;10.730;2022-09-30T17:46:09;17.13;;;13.37;;
25982;SDS011;13773;48.868;10.730;2022-09-30T17:48:43;18.53;;;14.67;;
25982;SDS011;13773;48.868;10.730;2022-09-30T17:51:10;20.27;;;14.80;;
25982;SDS011;13773;48.868;10.730;2022-09-30T17:53:37;16.80;;;13.63;;
25982;SDS011;13773;48.868;10.730;2022-09-30T17:56:06;20.20;;;12.47;;
25982;SDS011;13773;48.868;10.730;2022-09-30T17:58:40;14.87;;;11.37;;
25982;SDS011;13773;48.868;10.730;2022-09-30T18:01:13;15.67;;;11.87;;
25982;SDS011;13773;48.868;10.730;2022-09-30T18:03:40;16.60;;;11.43;;
25982;SDS011;13773;48.868;10.730;2022-09-30T18:06:06;15.67;;;11.33;;
25982;SDS011;13773;48.868;10.730;2022-09-30T18:08:32;16.67;;;10.73;;
25982;SDS011;13773;48.868;10.730;2022-09-30T18:10:58;16.93;;;11.63;;
25982;SDS011;13773;48.868;10.730;2022-09-30T18:13:25;15.23;;;11.63;;